Flight Track Log - Related Links

Times and Time Zones

All times are in EDT time to prevent confusion due to time zone crossing. See the SKW6306 flight status page for this flight to view local times or setup timezone preferences in your user account.

Time Position Orientation Groundspeed Altitude Reporting Facility
EDT Latitude Longitude Course Direction KTS MPH feet Rate Location/Type
Tue 02:09:27 PM 39.9500 -104.6833 348° North 231 266 7,500  Level Denver TRACON
Tue 02:10:27 PM 40.0167 -104.6667 11° North 277 319 8,500 1,234 Climbing Denver TRACON
Tue 02:11:00 PM 40.1854 -104.7773 347° North  Level FlightAware Approximate
Tue 02:11:14 PM 40.0783 -104.6642 North 284 327 9,700  Level Denver Center
Tue 02:12:00 PM 40.2980 -104.8111 347° North  Level FlightAware Approximate
Tue 02:12:16 PM 40.1664 -104.6872 349° North 300 345 11,400  Level Denver Center
Tue 02:13:00 PM 40.4101 -104.8478 346° North  Level FlightAware Approximate
Tue 02:13:18 PM 40.2506 -104.7094 349° North 308 354 13,100  Level Denver Center
Tue 02:14:00 PM 40.5221 -104.8849 348° North  Level FlightAware Approximate
Tue 02:14:20 PM 40.3375 -104.7328 348° North 317 365 14,800  Level Denver Center
Tue 02:15:22 PM 40.4336 -104.7567 349° North 326 375 17,000 1,659 Climbing Denver Center
Tue 02:16:23 PM 40.5239 -104.7828 348° North 331 381 18,200 1,171 Climbing Denver Center
Tue 02:17:25 PM 40.6275 -104.8086 349° North 351 404 19,400 919 Climbing Denver Center
Tue 02:18:27 PM 40.7197 -104.8372 347° North 344 396 20,100 774 Climbing Denver Center
Tue 02:19:29 PM 40.8208 -104.8656 348° North 342 394 21,000 726 Climbing Denver Center
Tue 02:20:31 PM 40.9081 -104.9089 339° North 346 398 21,600 677 Climbing Denver Center
Tue 02:21:33 PM 40.9972 -104.9519 340° North 352 405 22,400 774 Climbing Denver Center
Tue 02:22:35 PM 41.1033 -105.0036 340° North 361 415 23,200 927 Climbing Denver Center
Tue 02:23:36 PM 41.1947 -105.0492 339° North 365 420 24,300 1,073 Climbing Denver Center
Tue 02:24:38 PM 41.3033 -105.1058 339° North 371 427 25,400 774 Climbing Denver Center
Tue 02:25:40 PM 41.3947 -105.1489 341° North 366 421 25,900 581 Climbing Denver Center
Tue 02:26:42 PM 41.5022 -105.2042 339° North 369 425 26,600 532 Climbing Denver Center
Tue 02:27:44 PM 41.5972 -105.2431 343° North 381 438 27,000 488 Climbing Denver Center
Tue 02:28:45 PM 41.6978 -105.2611 352° North 379 436 27,600 537 Climbing Denver Center
Tue 02:29:47 PM 41.8003 -105.2811 352° North 384 442 28,100 484 Climbing Denver Center
Tue 02:30:49 PM 41.9197 -105.3044 352° North 388 447 28,600 387 Climbing Denver Center
Tue 02:31:51 PM 42.0406 -105.3267 352° North 389 448 28,900 290 Climbing Denver Center
Tue 02:32:53 PM 42.1472 -105.3472 352° North 397 457 29,200 484 Climbing Denver Center
Tue 02:33:55 PM 42.2697 -105.3683 353° North 396 456 29,900 488 Climbing Denver Center
Tue 02:34:56 PM 42.3761 -105.3903 351° North 400 460 30,200 341 Climbing Denver Center
Tue 02:35:58 PM 42.4789 -105.4092 352° North 392 451 30,600 409 Climbing Denver Center
Tue 02:37:52 PM 42.6864 -105.4506 352° North 391 450 31,400 419 Climbing Salt Lake Center
Tue 02:39:04 PM 42.8256 -105.4758 352° North 393 452 31,900 271 Climbing Denver Center
Tue 02:40:05 PM 42.9289 -105.4953 352° North 392 451 32,000 49 Climbing Denver Center
Tue 02:41:07 PM 43.0333 -105.5167 351° North 395 455 32,000  Level Denver Center
Tue 02:42:09 PM 43.1564 -105.5394 352° North 397 457 32,000  Level Denver Center
Tue 02:43:11 PM 43.2622 -105.5614 351° North 399 459 32,000  Level Denver Center
Tue 02:44:13 PM 43.3864 -105.5858 352° North 402 463 32,000  Level Denver Center
Tue 02:45:14 PM 43.4908 -105.6067 352° North 398 458 32,000  Level Denver Center
Tue 02:46:28 PM 43.6136 -105.6300 352° North 398 458 32,000  Level Denver Center
Tue 02:47:30 PM 43.7353 -105.6531 352° North 396 456 32,000  Level Denver Center
Tue 02:48:32 PM 43.8564 -105.6775 352° North 394 453 32,000  Level Denver Center
Tue 02:49:34 PM 43.9600 -105.6983 352° North 393 452 32,000  Level Denver Center
Tue 02:50:36 PM 44.0803 -105.7242 351° North 392 451 32,000  Level Denver Center
Tue 02:51:37 PM 44.1825 -105.7444 352° North 390 449 32,000  Level Denver Center
Tue 02:52:39 PM 44.3028 -105.7678 352° North 390 449 32,000  Level Denver Center
Tue 02:53:41 PM 44.4064 -105.7900 351° North 391 450 32,000  Level Denver Center
Tue 02:54:23 PM 44.4756 -105.8058 351° North 391 450 32,000  Level Salt Lake Center
Tue 02:55:25 PM 44.5950 -105.8283 352° North 388 447 32,000  Level Salt Lake Center
Tue 02:56:27 PM 44.6986 -105.8489 352° North 391 450 32,000  Level Salt Lake Center
Tue 02:57:28 PM 44.8192 -105.8756 351° North 393 452 32,000  Level Salt Lake Center
Tue 02:58:30 PM 44.9219 -105.8975 351° North 393 452 32,000  Level Salt Lake Center
Tue 02:59:32 PM 45.0406 -105.9222 352° North 388 447 32,000  Level Salt Lake Center
Tue 03:00:34 PM 45.1425 -105.9419 352° North 387 445 32,000  Level Salt Lake Center
Tue 03:01:36 PM 45.2461 -105.9639 352° North 392 451 32,000  Level Salt Lake Center
Tue 03:02:37 PM 45.3508 -105.9864 351° North 392 451 32,000  Level Salt Lake Center
Tue 03:03:39 PM 45.4808 -106.0150 351° North 393 452 32,000  Level Salt Lake Center
Tue 03:04:41 PM 45.5889 -106.0378 352° North 393 452 32,000  Level Salt Lake Center
Tue 03:05:43 PM 45.6978 -106.0614 351° North 395 455 32,000  Level Salt Lake Center
Tue 03:06:45 PM 45.8064 -106.0842 352° North 396 456 32,000  Level Salt Lake Center
Tue 03:07:46 PM 45.9153 -106.1081 351° North 396 456 32,000  Level Salt Lake Center
Tue 03:08:48 PM 46.0211 -106.1292 352° North 393 452 32,000  Level Salt Lake Center
Tue 03:09:50 PM 46.1281 -106.1517 352° North 391 450 32,000  Level Salt Lake Center
Tue 03:10:52 PM 46.2572 -106.1792 352° North 390 449 32,000  Level Salt Lake Center
Tue 03:11:54 PM 46.3653 -106.2019 352° North 391 450 32,000  Level Salt Lake Center
Tue 03:12:56 PM 46.4747 -106.2264 351° North 393 452 32,000  Level Salt Lake Center
Tue 03:13:57 PM 46.5853 -106.2528 351° North 396 456 32,000  Level Salt Lake Center
Tue 03:14:59 PM 46.6953 -106.2761 352° North 398 458 32,000  Level Salt Lake Center
Tue 03:16:01 PM 46.8078 -106.3025 351° North 401 461 32,000  Level Salt Lake Center
Tue 03:17:03 PM 46.9192 -106.3278 351° North 403 464 32,000  Level Salt Lake Center
Tue 03:18:05 PM 47.0539 -106.3583 351° North 405 466 32,000  Level Salt Lake Center
Tue 03:19:06 PM 47.1669 -106.3839 351° North 407 468 32,000  Level Salt Lake Center
Tue 03:20:08 PM 47.2825 -106.4094 351° North 411 473 32,000  Level Salt Lake Center
Tue 03:21:10 PM 47.3997 -106.4381 351° North 418 481 32,000  Level Salt Lake Center
Tue 03:22:12 PM 47.5172 -106.4639 352° North 423 487 32,000  Level Salt Lake Center
Tue 03:23:14 PM 47.6344 -106.4917 351° North 424 488 32,000  Level Salt Lake Center
Tue 03:24:15 PM 47.7544 -106.5197 351° North 430 495 32,000  Level Salt Lake Center
Tue 03:25:17 PM 47.8983 -106.5533 351° North 434 499 32,000  Level Salt Lake Center
Tue 03:26:19 PM 48.0214 -106.5819 351° North 439 505 32,000  Level Salt Lake Center
Tue 03:27:21 PM 48.1461 -106.6108 351° North 447 514 32,000  Level Salt Lake Center
Tue 03:28:23 PM 48.2717 -106.6544 347° North 457 526 32,000  Level Salt Lake Center
Tue 03:29:25 PM 48.3944 -106.7150 342° North 463 533 32,000  Level Salt Lake Center
Tue 03:30:26 PM 48.5192 -106.7753 342° North 467 537 32,000  Level Salt Lake Center
Tue 03:31:28 PM 48.6419 -106.8375 341° North 467 537 32,000  Level Salt Lake Center
Tue 03:32:30 PM 48.7919 -106.9117 342° North 470 541 32,000  Level Salt Lake Center
Tue 03:33:32 PM 48.9172 -106.9747 342° North 474 545 32,000  Level Salt Lake Center
Tue 03:34:21 PM 49.0167 -107.0500 334° Northwest 470 541 32,000  Level Winnipeg Center
Tue 03:35:21 PM 49.1167 -107.1000 342° North 480 552 32,000  Level Winnipeg Center
Tue 03:36:21 PM 49.2500 -107.1833 338° Northwest 480 552 32,000  Level Winnipeg Center
Tue 03:37:21 PM 49.3833 -107.2333 346° North 480 552 32,000  Level Winnipeg Center
Tue 03:38:21 PM 49.5000 -107.3167 335° Northwest 470 541 32,000  Level Winnipeg Center
Tue 03:39:21 PM 49.6333 -107.3667 346° North 480 552 32,000  Level Winnipeg Center
Tue 03:40:21 PM 49.7667 -107.4500 338° Northwest 480 552 32,000  Level Winnipeg Center
Tue 03:41:21 PM 49.9000 -107.5000 346° North 480 552 32,000  Level Winnipeg Center
Tue 03:42:21 PM 50.0000 -107.5833 332° Northwest 480 552 32,000  Level Winnipeg Center
Tue 03:43:21 PM 50.1333 -107.6333 346° North 480 552 32,000  Level Winnipeg Center
Tue 03:44:21 PM 50.2667 -107.7000 342° North 470 541 32,000  Level Winnipeg Center
Tue 03:45:21 PM 50.4000 -107.7000 360° North 470 541 32,000  Level Winnipeg Center
Tue 03:46:21 PM 50.5333 -107.7000 360° North 470 541 32,000  Level Winnipeg Center
Tue 03:47:21 PM 50.6500 -107.6833 North 470 541 32,000  Level Winnipeg Center
Tue 03:48:21 PM 50.7833 -107.6667 North 470 541 32,000 -450 Level Winnipeg Center
Tue 03:49:21 PM 50.9000 -107.6667 360° North 470 541 31,100 -1,000 Descending Winnipeg Center
Tue 03:50:21 PM 51.0500 -107.6333 North 470 541 30,000 -2,150 Descending Winnipeg Center
Tue 03:51:21 PM 51.1667 -107.5833 15° North 460 529 26,800 -3,250 Descending Winnipeg Center
Tue 03:52:21 PM 51.2833 -107.5000 24° Northeast 450 518 23,500 -3,100 Descending Winnipeg Center
Tue 03:53:21 PM 51.4000 -107.4500 15° North 440 506 20,600 -3,000 Descending Winnipeg Center
Tue 03:54:21 PM 51.5000 -107.3667 27° Northeast 420 483 17,500 -3,000 Descending Winnipeg Center
Tue 03:55:21 PM 51.6167 -107.3167 15° North 400 460 14,600 -2,500 Descending Winnipeg Center
Tue 03:56:21 PM 51.7000 -107.2500 26° Northeast 380 437 12,500 -1,900 Descending Winnipeg Center
Tue 03:57:21 PM 51.7833 -107.2167 14° North 340 391 10,800 -1,700 Descending Winnipeg Center
Tue 03:58:21 PM 51.8667 -107.1500 26° Northeast 310 357 9,100 -1,650 Descending Winnipeg Center
Tue 03:59:21 PM 51.9500 -107.1167 14° North 290 334 7,500 -1,550 Descending Winnipeg Center
Tue 04:00:21 PM 52.0167 -107.0833 17° North 270 311 6,000 -1,200 Descending Winnipeg Center
Tue 04:01:21 PM 52.0833 -107.0333 25° Northeast 270 311 5,100 -900 Descending Winnipeg Center
Tue 04:02:21 PM 52.1500 -107.0000 17° North 260 299 4,200 -900 Descending Winnipeg Center

Login

Don't have an account? Register now (free) for customized features, flight alerts, and more!